Time;durP1;ratioP1;P1;durP2;ratioP2;P2;SDS_P1;SDS_P2;PMS_P1;PMS_P2;Temp;Humidity;BMP_temperature;BMP_pressure;BME280_temperature;BME280_humidity;BME280_pressure;Samples;Min_cycle;Max_cycle;Signal;HPM_P1;HPM_P2
2021/11/10 00:04:55;;;;;;;65.43;37.40;;;;;;;;;;5080361;28;20451;-86
2021/11/10 00:07:20;;;;;;;;;;;;;;;;;;5084965;28;20038;-87
2021/11/10 00:09:47;;;;;;;65.93;38.15;;;;;;;;;;5079990;28;19916;-86
2021/11/10 00:12:13;;;;;;;60.95;37.83;;;;;;;;;;5079880;28;20021;-87
2021/11/10 00:14:39;;;;;;;62.45;39.20;;;;;;;;;;5079940;28;20301;-85
2021/11/10 00:17:05;;;;;;;64.05;38.85;;;;;;;;;;5095734;28;20357;-85
2021/11/10 00:19:31;;;;;;;70.53;38.97;;;;;;;;;;5096056;28;20307;-85
2021/11/10 00:21:57;;;;;;;58.65;37.47;;;;;;;;;;5096068;28;20108;-85
2021/11/10 00:24:23;;;;;;;64.63;38.20;;;;;;;;;;5079877;28;20067;-86
2021/11/10 00:26:49;;;;;;;65.70;38.97;;;;;;;;;;5079514;28;20067;-86
2021/11/10 00:29:15;;;;;;;67.22;40.78;;;;;;;;;;5087797;28;20028;-85
2021/11/10 00:31:41;;;;;;;62.30;38.22;;;;;;;;;;5089619;28;20036;-85
2021/11/10 00:34:07;;;;;;;66.47;40.97;;;;;;;;;;5079063;28;20043;-86
2021/11/10 00:36:33;;;;;;;63.83;39.45;;;;;;;;;;5079367;28;20017;-85
2021/11/10 00:39:00;;;;;;;61.42;39.40;;;;;;;;;;5079888;28;20291;-85
2021/11/10 00:41:26;;;;;;;57.65;36.72;;;;;;;;;;5098639;28;20020;-85
2021/11/10 00:43:52;;;;;;;60.97;37.65;;;;;;;;;;5099898;28;20114;-84
2021/11/10 00:46:18;;;;;;;56.08;37.47;;;;;;;;;;5097743;28;20035;-84
2021/11/10 00:48:44;;;;;;;60.58;37.55;;;;;;;;;;5094040;28;20016;-84
2021/11/10 00:51:10;;;;;;;61.60;37.08;;;;;;;;;;5079406;28;20064;-85
2021/11/10 00:53:36;;;;;;;63.70;38.55;;;;;;;;;;5078788;28;20028;-85
2021/11/10 00:56:02;;;;;;;63.20;37.63;;;;;;;;;;5079379;28;20070;-85
2021/11/10 00:58:28;;;;;;;68.00;39.05;;;;;;;;;;5097392;28;20024;-85
2021/11/10 01:00:54;;;;;;;68.95;41.25;;;;;;;;;;5099014;28;20052;-86
2021/11/10 01:03:22;;;;;;;62.80;39.22;;;;;;;;;;5098988;28;20413;-85
2021/11/10 01:05:48;;;;;;;64.07;39.78;;;;;;;;;;5085890;28;20387;-84
2021/11/10 01:08:14;;;;;;;59.90;39.78;;;;;;;;;;5078622;28;20033;-85
2021/11/10 01:10:40;;;;;;;64.05;39.38;;;;;;;;;;5079591;28;20107;-85
2021/11/10 01:13:07;;;;;;;62.63;38.80;;;;;;;;;;5078699;28;20017;-86
2021/11/10 01:15:34;;;;;;;59.17;36.90;;;;;;;;;;5078831;28;20048;-85
2021/11/10 01:18:00;;;;;;;59.47;36.55;;;;;;;;;;5077951;28;20021;-85
2021/11/10 01:20:26;;;;;;;87.53;34.08;;;;;;;;;;5078697;28;20429;-85
2021/11/10 01:22:52;;;;;;;99.35;34.35;;;;;;;;;;5078587;28;20028;-83
2021/11/10 01:25:18;;;;;;;98.60;33.58;;;;;;;;;;5082371;28;20031;-85
2021/11/10 01:27:44;;;;;;;92.60;30.90;;;;;;;;;;5098450;28;20420;-86
2021/11/10 01:30:12;;;;;;;53.78;28.05;;;;;;;;;;5098629;28;20027;-85
2021/11/10 01:32:38;;;;;;;88.40;27.98;;;;;;;;;;5098970;28;20034;-85
2021/11/10 01:35:04;;;;;;;65.93;26.45;;;;;;;;;;5097664;28;20020;-86
2021/11/10 01:37:30;;;;;;;77.00;26.33;;;;;;;;;;5098905;28;20374;-85
2021/11/10 01:39:56;;;;;;;61.50;23.15;;;;;;;;;;5098855;28;20020;-86
2021/11/10 01:42:25;;;;;;;33.72;22.08;;;;;;;;;;5098579;28;20099;-86
2021/11/10 01:44:52;;;;;;;44.67;21.02;;;;;;;;;;5098424;28;20024;-86
2021/11/10 01:47:18;;;;;;;80.90;21.05;;;;;;;;;;5089191;28;20039;-85
2021/11/10 01:49:44;;;;;;;45.33;19.88;;;;;;;;;;5077039;28;20032;-86
2021/11/10 01:52:10;;;;;;;63.10;18.08;;;;;;;;;;5077876;28;20073;-85
2021/11/10 01:54:38;;;;;;;58.70;18.30;;;;;;;;;;5077081;28;20067;-85
2021/11/10 01:57:04;;;;;;;51.63;17.50;;;;;;;;;;5077027;28;20403;-86
2021/11/10 01:59:34;;;;;;;24.95;17.20;;;;;;;;;;5077136;28;20032;-86
2021/11/10 02:05:03;;;;;;;67.70;18.05;;;;;;;;;;5078216;28;20077;-86
2021/11/10 02:07:29;;;;;;;76.95;18.15;;;;;;;;;;5060426;28;20093;-86
2021/11/10 02:09:55;;;;;;;61.00;17.35;;;;;;;;;;5077775;28;20041;-86
2021/11/10 02:12:22;;;;;;;30.95;18.30;;;;;;;;;;5077786;28;20020;-86
2021/11/10 02:14:48;;;;;;;57.90;16.67;;;;;;;;;;5077941;28;20097;-86
2021/11/10 02:17:19;;;;;;;77.63;18.20;;;;;;;;;;5076809;28;20485;-86
2021/11/10 02:19:45;;;;;;;68.97;17.33;;;;;;;;;;5076848;28;20043;-86
2021/11/10 02:22:13;;;;;;;35.38;16.73;;;;;;;;;;5077663;28;20028;-86
2021/11/10 02:24:40;;;;;;;66.30;17.27;;;;;;;;;;5077958;28;20043;-86
2021/11/10 02:27:22;;;;;;;66.88;16.50;;;;;;;;;;5083859;28;20031;-86
2021/11/10 02:29:48;;;;;;;;;;;;;;;;;;5098304;28;20032;-86
2021/11/10 02:32:15;;;;;;;86.68;16.40;;;;;;;;;;5098038;28;19915;-86
2021/11/10 02:34:42;;;;;;;55.40;17.65;;;;;;;;;;5097510;28;20062;-87
2021/11/10 02:37:08;;;;;;;98.00;18.25;;;;;;;;;;5077674;28;20029;-86
2021/11/10 02:39:36;;;;;;;84.35;17.55;;;;;;;;;;5077674;28;20025;-86
2021/11/10 02:42:03;;;;;;;63.47;18.05;;;;;;;;;;5077322;28;20048;-86
2021/11/10 02:44:29;;;;;;;85.13;17.83;;;;;;;;;;5077820;28;20020;-86
2021/11/10 02:47:15;;;;;;;30.70;18.02;;;;;;;;;;5082590;28;20034;-86
2021/11/10 02:49:41;;;;;;;53.65;17.65;;;;;;;;;;5097777;28;20020;-86
2021/11/10 02:52:10;;;;;;;71.72;17.05;;;;;;;;;;5097782;28;20028;-86
2021/11/10 02:54:37;;;;;;;41.85;17.42;;;;;;;;;;5096848;28;20422;-86
2021/11/10 02:57:05;;;;;;;32.20;16.95;;;;;;;;;;5097558;28;20031;-87
2021/11/10 02:59:31;;;;;;;64.57;17.85;;;;;;;;;;5097555;28;20055;-86
2021/11/10 03:01:58;;;;;;;25.60;17.35;;;;;;;;;;5089004;28;20051;-86
2021/11/10 03:04:26;;;;;;;22.58;16.98;;;;;;;;;;5076684;28;20032;-86
2021/11/10 03:06:52;;;;;;;22.52;17.35;;;;;;;;;;5089597;28;20436;-86
2021/11/10 03:09:20;;;;;;;22.77;17.40;;;;;;;;;;5076086;28;20056;-86
2021/11/10 03:11:46;;;;;;;34.92;18.48;;;;;;;;;;5080991;28;20021;-86
2021/11/10 03:14:13;;;;;;;25.40;19.13;;;;;;;;;;5081256;28;20054;-86
2021/11/10 03:16:39;;;;;;;55.22;20.00;;;;;;;;;;5081362;28;20347;-86
2021/11/10 03:22:10;;;;;;;64.32;21.30;;;;;;;;;;5081358;28;20031;-87
2021/11/10 03:24:36;;;;;;;35.65;20.67;;;;;;;;;;5081127;28;20103;-87
2021/11/10 03:27:03;;;;;;;48.35;20.48;;;;;;;;;;5080836;28;20414;-87
2021/11/10 03:29:29;;;;;;;84.93;21.23;;;;;;;;;;5080912;28;20016;-86
2021/11/10 03:31:55;;;;;;;44.33;20.10;;;;;;;;;;5080863;28;20031;-86
2021/11/10 03:34:21;;;;;;;33.67;18.70;;;;;;;;;;5079770;28;20028;-86
2021/11/10 03:36:49;;;;;;;25.05;18.52;;;;;;;;;;5092949;28;20050;-87
2021/11/10 03:39:16;;;;;;;34.70;19.60;;;;;;;;;;5100435;28;20091;-86
2021/11/10 03:41:42;;;;;;;31.27;17.80;;;;;;;;;;5101235;28;20024;-87
2021/11/10 03:44:08;;;;;;;51.22;18.25;;;;;;;;;;5101356;28;20107;-87
2021/11/10 03:46:34;;;;;;;34.20;17.60;;;;;;;;;;5100752;28;20039;-87
2021/11/10 03:52:04;;;;;;;28.67;17.23;;;;;;;;;;5100963;28;20456;-86
2021/11/10 03:54:30;;;;;;;46.95;18.17;;;;;;;;;;5099684;28;20028;-86
2021/11/10 03:56:56;;;;;;;40.38;25.38;;;;;;;;;;5098481;28;20027;-87
2021/11/10 03:59:22;;;;;;;99.20;43.40;;;;;;;;;;5080404;28;20033;-87
2021/11/10 04:01:49;;;;;;;77.60;40.67;;;;;;;;;;5080330;28;20029;-86
2021/11/10 04:07:18;;;;;;;96.10;38.13;;;;;;;;;;5080415;28;20035;-87
2021/11/10 04:09:44;;;;;;;85.68;32.63;;;;;;;;;;5079115;28;20056;-86
2021/11/10 04:12:10;;;;;;;69.60;29.00;;;;;;;;;;5079896;28;20420;-87
2021/11/10 04:14:36;;;;;;;57.33;23.00;;;;;;;;;;5079629;28;20037;-86
2021/11/10 04:17:02;;;;;;;53.67;20.77;;;;;;;;;;5079028;28;20058;-87
2021/11/10 04:22:32;;;;;;;39.55;19.50;;;;;;;;;;5079944;28;20357;-86
2021/11/10 04:24:58;;;;;;;29.48;19.88;;;;;;;;;;5079231;28;20098;-87
2021/11/10 04:27:24;;;;;;;46.33;25.40;;;;;;;;;;5080762;28;20024;-87
2021/11/10 04:29:50;;;;;;;48.08;30.67;;;;;;;;;;5099810;28;20039;-87
2021/11/10 04:32:17;;;;;;;42.22;28.92;;;;;;;;;;5086013;28;20421;-87
2021/11/10 04:34:43;;;;;;;49.33;31.73;;;;;;;;;;5079779;28;20024;-86
2021/11/10 04:37:14;;;;;;;41.47;29.05;;;;;;;;;;5078690;28;20039;-86
2021/11/10 04:39:43;;;;;;;49.60;29.35;;;;;;;;;;5079859;28;20021;-86
2021/11/10 04:42:10;;;;;;;47.97;27.45;;;;;;;;;;5078646;28;20457;-87
2021/11/10 04:44:36;;;;;;;46.83;27.45;;;;;;;;;;5079602;28;20056;-86
2021/11/10 04:47:04;;;;;;;39.15;24.50;;;;;;;;;;5078422;28;20024;-87
2021/11/10 04:49:30;;;;;;;44.38;23.23;;;;;;;;;;5078288;28;20060;-86
2021/11/10 04:52:00;;;;;;;42.53;21.80;;;;;;;;;;5078443;28;20050;-87
2021/11/10 04:54:33;;;;;;;34.55;22.38;;;;;;;;;;5078462;28;20443;-86
2021/11/10 04:56:58;;;;;;;;;;;;;;;;;;5078755;28;20061;-86
2021/11/10 04:59:24;;;;;;;39.88;20.02;;;;;;;;;;5078013;28;19908;-86
2021/11/10 05:02:23;;;;;;;29.00;21.63;;;;;;;;;;5082305;28;20120;-86
2021/11/10 05:08:05;;;;;;;35.65;19.33;;;;;;;;;;5081738;28;20511;-85
2021/11/10 05:10:32;;;;;;;46.05;19.67;;;;;;;;;;5098805;28;20052;-86
2021/11/10 05:12:58;;;;;;;29.02;20.55;;;;;;;;;;5099430;28;20353;-89
2021/11/10 05:15:24;;;;;;;35.33;20.42;;;;;;;;;;5099341;28;20057;-87
2021/11/10 05:17:50;;;;;;;32.83;22.15;;;;;;;;;;5099231;28;20032;-87
2021/11/10 05:20:16;;;;;;;34.90;21.80;;;;;;;;;;5085474;28;20107;-87
2021/11/10 05:22:42;;;;;;;35.00;24.00;;;;;;;;;;5092792;28;20064;-86
2021/11/10 05:25:09;;;;;;;35.08;23.67;;;;;;;;;;5098252;28;20032;-87
2021/11/10 05:27:36;;;;;;;43.90;25.10;;;;;;;;;;5098929;28;20020;-87
2021/11/10 05:30:03;;;;;;;40.95;25.55;;;;;;;;;;5098706;28;20107;-86
2021/11/10 05:32:29;;;;;;;36.78;22.80;;;;;;;;;;5098442;28;20036;-86
2021/11/10 05:34:58;;;;;;;29.52;19.95;;;;;;;;;;5098333;28;20119;-86
2021/11/10 05:37:25;;;;;;;26.38;18.30;;;;;;;;;;5099130;28;20027;-86
2021/11/10 05:39:51;;;;;;;27.95;18.73;;;;;;;;;;5098085;28;20324;-86
2021/11/10 05:42:17;;;;;;;28.75;19.33;;;;;;;;;;5083052;28;20428;-87
2021/11/10 05:44:43;;;;;;;28.08;18.92;;;;;;;;;;5078371;28;20419;-86
2021/11/10 05:47:09;;;;;;;30.38;20.20;;;;;;;;;;5078417;28;20020;-86
2021/11/10 05:49:35;;;;;;;32.85;21.48;;;;;;;;;;5078551;28;20347;-86
2021/11/10 05:52:02;;;;;;;36.90;21.70;;;;;;;;;;5078139;28;20027;-86
2021/11/10 05:54:28;;;;;;;42.45;23.92;;;;;;;;;;5077080;28;20229;-86
2021/11/10 05:56:54;;;;;;;59.78;26.75;;;;;;;;;;5090748;28;20020;-86
2021/11/10 05:59:20;;;;;;;105.07;44.92;;;;;;;;;;5098246;28;20418;-86
2021/11/10 06:01:47;;;;;;;50.58;28.52;;;;;;;;;;5077737;28;20032;-88
2021/11/10 06:04:13;;;;;;;35.50;21.02;;;;;;;;;;5077880;28;20028;-87
2021/11/10 06:06:39;;;;;;;30.52;20.75;;;;;;;;;;5083999;28;20060;-86
2021/11/10 06:09:06;;;;;;;38.30;23.10;;;;;;;;;;5097349;28;20089;-87
2021/11/10 06:11:32;;;;;;;37.38;25.25;;;;;;;;;;5095879;28;20032;-87
2021/11/10 06:13:58;;;;;;;38.38;26.60;;;;;;;;;;5078067;28;20037;-87
2021/11/10 06:16:24;;;;;;;37.75;26.45;;;;;;;;;;5077066;28;20032;-87
2021/11/10 06:18:50;;;;;;;33.85;24.45;;;;;;;;;;5078035;28;20024;-86
2021/11/10 06:21:16;;;;;;;34.78;23.98;;;;;;;;;;5077689;28;20017;-86
2021/11/10 06:23:43;;;;;;;30.48;22.10;;;;;;;;;;5077559;28;20050;-86
2021/11/10 06:26:09;;;;;;;28.40;21.40;;;;;;;;;;5077863;28;20387;-86
2021/11/10 06:28:35;;;;;;;28.70;21.40;;;;;;;;;;5094998;28;20024;-86
2021/11/10 06:31:01;;;;;;;29.20;21.45;;;;;;;;;;5097849;28;20035;-85
2021/11/10 06:33:28;;;;;;;26.13;18.90;;;;;;;;;;5096818;28;20032;-85
2021/11/10 06:35:54;;;;;;;27.05;19.02;;;;;;;;;;5096782;28;20024;-86
2021/11/10 06:38:20;;;;;;;21.45;17.50;;;;;;;;;;5097032;28;20020;-86
2021/11/10 06:40:46;;;;;;;24.83;18.15;;;;;;;;;;5097627;28;20032;-86
2021/11/10 06:43:12;;;;;;;22.15;16.55;;;;;;;;;;5097542;28;20027;-85
2021/11/10 06:45:38;;;;;;;20.88;15.35;;;;;;;;;;5099781;28;20024;-86
2021/11/10 06:48:05;;;;;;;23.50;15.60;;;;;;;;;;5101007;28;20024;-85
2021/11/10 06:51:08;;;;;;;20.40;15.70;;;;;;;;;;5086923;28;20020;-86
2021/11/10 06:53:34;;;;;;;22.40;16.60;;;;;;;;;;5101547;28;20027;-85
2021/11/10 06:56:01;;;;;;;21.88;16.63;;;;;;;;;;5096314;28;20023;-84
2021/11/10 06:58:27;;;;;;;22.42;15.98;;;;;;;;;;5081203;28;20410;-84
2021/11/10 07:00:53;;;;;;;19.80;14.50;;;;;;;;;;5080374;28;20052;-86
2021/11/10 07:06:22;;;;;;;21.40;15.30;;;;;;;;;;5081479;28;20138;-85
2021/11/10 07:08:48;;;;;;;24.80;15.52;;;;;;;;;;5080003;28;20056;-85
2021/11/10 07:11:14;;;;;;;27.08;15.80;;;;;;;;;;5081651;28;20023;-85
2021/11/10 07:13:41;;;;;;;19.08;14.65;;;;;;;;;;5081094;28;20040;-85
2021/11/10 07:16:07;;;;;;;23.20;14.65;;;;;;;;;;5080245;28;20099;-85
2021/11/10 07:21:36;;;;;;;20.27;14.55;;;;;;;;;;5081311;28;20062;-85
2021/11/10 07:24:03;;;;;;;27.02;15.77;;;;;;;;;;5081154;28;20055;-85
2021/11/10 07:26:29;;;;;;;27.63;17.60;;;;;;;;;;5080057;28;20342;-86
2021/11/10 07:28:55;;;;;;;30.95;17.35;;;;;;;;;;5080954;28;20029;-85
2021/11/10 07:31:21;;;;;;;34.70;19.90;;;;;;;;;;5080045;28;20036;-85
2021/11/10 07:36:51;;;;;;;24.48;16.55;;;;;;;;;;5080928;28;20030;-84
2021/11/10 07:39:17;;;;;;;21.98;14.90;;;;;;;;;;5080964;28;20070;-85
2021/11/10 07:41:46;;;;;;;23.58;15.30;;;;;;;;;;5079634;28;20399;-84
2021/11/10 07:44:12;;;;;;;20.58;14.50;;;;;;;;;;5079732;28;20406;-85
2021/11/10 07:46:38;;;;;;;21.00;14.35;;;;;;;;;;5080903;28;20028;-84
2021/11/10 07:55:12;;;;;;;20.45;12.98;;;;;;;;;;5080341;28;20031;-86
2021/11/10 07:57:38;;;;;;;17.40;12.35;;;;;;;;;;5079126;28;20323;-85
2021/11/10 08:00:07;;;;;;;14.60;11.20;;;;;;;;;;5080106;28;20028;-86
2021/11/10 08:02:33;;;;;;;17.40;12.15;;;;;;;;;;5080531;28;20067;-85
2021/11/10 08:04:59;;;;;;;16.67;11.57;;;;;;;;;;5080163;28;20028;-85
2021/11/10 08:07:26;;;;;;;19.05;11.55;;;;;;;;;;5080380;28;20029;-86
2021/11/10 08:09:52;;;;;;;17.70;11.45;;;;;;;;;;5079986;28;20048;-86
2021/11/10 08:12:18;;;;;;;16.85;11.68;;;;;;;;;;5080538;28;20048;-86
2021/11/10 08:14:44;;;;;;;16.75;11.27;;;;;;;;;;5080389;28;20359;-85
2021/11/10 08:17:10;;;;;;;15.20;10.45;;;;;;;;;;5079237;28;20024;-85
2021/11/10 08:19:36;;;;;;;16.90;11.60;;;;;;;;;;5080174;28;20036;-86
2021/11/10 08:22:02;;;;;;;15.35;10.18;;;;;;;;;;5079112;28;20039;-85
2021/11/10 08:24:29;;;;;;;13.35;10.40;;;;;;;;;;5080100;28;20032;-88
2021/11/10 08:26:56;;;;;;;14.23;9.52;;;;;;;;;;5079165;28;20422;-85
2021/11/10 08:29:23;;;;;;;13.73;8.70;;;;;;;;;;5078831;28;20085;-85
2021/11/10 08:31:50;;;;;;;13.93;10.27;;;;;;;;;;5079229;28;20132;-84
2021/11/10 08:34:34;;;;;;;16.65;9.18;;;;;;;;;;5079917;28;20346;-84
2021/11/10 08:37:00;;;;;;;11.18;8.15;;;;;;;;;;5079864;28;20029;-84
2021/11/10 08:39:27;;;;;;;19.35;7.97;;;;;;;;;;5078296;28;20020;-85
2021/11/10 08:41:53;;;;;;;11.25;7.85;;;;;;;;;;5079262;28;20021;-85
2021/11/10 08:44:19;;;;;;;11.55;8.07;;;;;;;;;;5079738;28;20036;-84
2021/11/10 08:46:45;;;;;;;12.65;7.82;;;;;;;;;;5079353;28;20034;-84
2021/11/10 08:49:12;;;;;;;12.65;7.47;;;;;;;;;;5078224;28;20029;-85
2021/11/10 08:51:38;;;;;;;13.18;8.55;;;;;;;;;;5078336;28;20028;-85
2021/11/10 08:54:04;;;;;;;13.07;7.85;;;;;;;;;;5079216;28;20056;-85
2021/11/10 08:56:31;;;;;;;11.63;7.65;;;;;;;;;;5079457;28;20107;-84
2021/11/10 08:58:58;;;;;;;11.70;8.43;;;;;;;;;;5079074;28;20024;-84
2021/11/10 09:01:24;;;;;;;11.68;7.97;;;;;;;;;;5079424;28;20024;-84
2021/11/10 09:03:50;;;;;;;21.77;10.38;;;;;;;;;;5079000;28;20021;-84
2021/11/10 09:09:20;;;;;;;11.82;7.35;;;;;;;;;;5076214;28;20354;-84
2021/11/10 09:11:48;;;;;;;10.00;7.25;;;;;;;;;;5078149;28;20088;-85
2021/11/10 09:14:14;;;;;;;11.32;8.20;;;;;;;;;;5078855;28;20078;-84
2021/11/10 09:16:40;;;;;;;13.07;8.00;;;;;;;;;;5078380;28;20021;-84
2021/11/10 09:22:10;;;;;;;14.95;8.98;;;;;;;;;;5078890;28;20066;-83
2021/11/10 09:24:37;;;;;;;14.43;8.52;;;;;;;;;;5078788;28;20028;-83
2021/11/10 09:27:04;;;;;;;12.23;8.00;;;;;;;;;;5078403;28;20022;-84
2021/11/10 09:29:31;;;;;;;10.77;5.97;;;;;;;;;;5078551;28;20025;-83
2021/11/10 09:31:57;;;;;;;7.03;3.83;;;;;;;;;;5078616;28;20044;-85
2021/11/10 09:37:27;;;;;;;7.93;5.15;;;;;;;;;;5078501;28;20035;-85
2021/11/10 09:39:54;;;;;;;6.65;4.90;;;;;;;;;;5077393;28;20421;-84
2021/11/10 09:42:22;;;;;;;5.47;4.07;;;;;;;;;;5078593;28;20024;-85
2021/11/10 09:44:49;;;;;;;8.45;4.93;;;;;;;;;;5078472;28;20120;-84
2021/11/10 09:47:15;;;;;;;5.38;3.85;;;;;;;;;;5078166;28;20027;-84
2021/11/10 09:49:41;;;;;;;4.35;3.45;;;;;;;;;;5078064;28;20030;-84
2021/11/10 09:52:07;;;;;;;6.78;4.30;;;;;;;;;;5078142;28;20099;-84
2021/11/10 09:54:35;;;;;;;11.30;4.18;;;;;;;;;;5091301;28;20024;-84
2021/11/10 09:57:01;;;;;;;11.27;4.57;;;;;;;;;;5098572;28;20095;-84
2021/11/10 09:59:28;;;;;;;7.60;4.97;;;;;;;;;;5097849;28;20154;-84
2021/11/10 10:01:55;;;;;;;9.15;5.25;;;;;;;;;;5098493;28;20028;-83
2021/11/10 10:04:22;;;;;;;8.70;5.70;;;;;;;;;;5098485;28;20070;-83
2021/11/10 10:06:49;;;;;;;9.77;5.32;;;;;;;;;;5097930;28;20497;-83
2021/11/10 10:09:15;;;;;;;6.88;4.95;;;;;;;;;;5098111;28;20047;-83
2021/11/10 10:11:42;;;;;;;7.63;5.93;;;;;;;;;;5098323;28;20325;-83
2021/11/10 10:14:08;;;;;;;9.82;5.57;;;;;;;;;;5098130;28;20130;-84
2021/11/10 10:16:35;;;;;;;13.23;5.35;;;;;;;;;;5098221;28;20022;-84
2021/11/10 10:19:09;;;;;;;9.98;5.47;;;;;;;;;;5096783;28;20032;-84
2021/11/10 10:27:51;;;;;;;6.72;5.55;;;;;;;;;;5098050;28;20043;-83
2021/11/10 10:30:27;;;;;;;8.57;5.45;;;;;;;;;;5097938;28;20317;-84
2021/11/10 10:32:58;;;;;;;7.63;5.00;;;;;;;;;;5097666;28;20107;-84
2021/11/10 10:38:29;;;;;;;8.77;5.90;;;;;;;;;;5097907;28;20138;-84
2021/11/10 10:40:59;;;;;;;11.23;7.43;;;;;;;;;;5096779;28;20039;-84
2021/11/10 10:43:26;;;;;;;12.77;7.80;;;;;;;;;;5097775;28;20433;-84
2021/11/10 10:45:56;;;;;;;11.40;6.45;;;;;;;;;;5097936;28;20020;-85
2021/11/10 10:48:24;;;;;;;15.05;8.68;;;;;;;;;;5096695;28;20031;-84
2021/11/10 10:53:57;;;;;;;14.20;8.07;;;;;;;;;;5097689;28;20330;-85
2021/11/10 10:56:27;;;;;;;17.45;10.00;;;;;;;;;;5097504;28;20035;-84
2021/11/10 10:58:57;;;;;;;9.25;6.72;;;;;;;;;;5096484;28;20429;-84
2021/11/10 11:01:38;;;;;;;9.82;6.40;;;;;;;;;;5096636;28;20032;-84
2021/11/10 11:04:06;;;;;;;15.98;8.82;;;;;;;;;;5097775;28;20032;-85
2021/11/10 11:09:43;;;;;;;13.32;8.13;;;;;;;;;;5097517;28;20070;-84
2021/11/10 11:12:16;;;;;;;9.30;7.10;;;;;;;;;;5097750;28;20028;-84
2021/11/10 11:14:49;;;;;;;11.77;7.47;;;;;;;;;;5096558;28;20487;-84
2021/11/10 11:17:18;;;;;;;12.10;7.50;;;;;;;;;;5097720;28;20028;-84
2021/11/10 11:22:51;;;;;;;8.88;6.78;;;;;;;;;;5097544;28;20174;-84
2021/11/10 11:25:17;;;;;;;11.70;7.18;;;;;;;;;;5096511;28;20426;-84
2021/11/10 11:27:56;;;;;;;12.30;7.22;;;;;;;;;;5097480;28;20028;-84
2021/11/10 11:30:23;;;;;;;8.05;5.20;;;;;;;;;;5097130;28;20032;-84
2021/11/10 11:32:54;;;;;;;10.27;7.50;;;;;;;;;;5100072;28;20325;-84
2021/11/10 11:41:27;;;;;;;12.30;8.38;;;;;;;;;;5101098;28;20023;-84
2021/11/10 11:43:54;;;;;;;12.32;6.57;;;;;;;;;;5101219;28;20032;-84
2021/11/10 11:46:20;;;;;;;10.32;7.55;;;;;;;;;;5100854;28;20031;-84
2021/11/10 11:48:49;;;;;;;14.43;8.55;;;;;;;;;;5100816;28;20031;-84
2021/11/10 11:51:15;;;;;;;9.82;7.63;;;;;;;;;;5100774;28;20027;-84
2021/11/10 11:53:42;;;;;;;10.32;7.22;;;;;;;;;;5100503;28;20291;-84
2021/11/10 11:56:10;;;;;;;9.63;6.38;;;;;;;;;;5099621;28;20031;-83
2021/11/10 11:58:39;;;;;;;12.30;6.05;;;;;;;;;;5100717;28;20390;-84
2021/11/10 12:01:08;;;;;;;12.15;6.72;;;;;;;;;;5100654;28;20035;-84
2021/11/10 12:03:35;;;;;;;10.90;7.40;;;;;;;;;;5099478;28;20024;-84
2021/11/10 12:06:02;;;;;;;12.00;7.82;;;;;;;;;;5100691;28;20024;-84
2021/11/10 12:09:06;;;;;;;15.13;8.30;;;;;;;;;;5100395;28;20031;-84
2021/11/10 12:11:36;;;;;;;12.63;8.15;;;;;;;;;;5058172;28;20120;-85
2021/11/10 12:14:05;;;;;;;16.77;9.50;;;;;;;;;;5058024;28;20040;-84
2021/11/10 12:16:50;;;;;;;17.67;9.63;;;;;;;;;;5058134;28;20029;-84
2021/11/10 12:19:19;;;;;;;17.65;9.80;;;;;;;;;;5041185;28;20087;-84
2021/11/10 12:21:47;;;;;;;15.65;10.30;;;;;;;;;;5041237;28;20017;-84
2021/11/10 12:24:18;;;;;;;13.38;9.70;;;;;;;;;;5058014;28;20407;-85
2021/11/10 12:27:03;;;;;;;15.07;10.85;;;;;;;;;;5041406;28;20075;-84
2021/11/10 12:29:49;;;;;;;13.38;8.73;;;;;;;;;;5057729;28;20099;-84
2021/11/10 12:32:16;;;;;;;8.73;7.32;;;;;;;;;;5041186;28;20060;-84
2021/11/10 12:34:45;;;;;;;12.88;8.40;;;;;;;;;;5057672;28;20393;-84
2021/11/10 12:37:31;;;;;;;12.38;9.20;;;;;;;;;;5057796;28;20021;-84
2021/11/10 12:40:02;;;;;;;12.32;8.73;;;;;;;;;;5040799;28;20034;-84
2021/11/10 12:42:47;;;;;;;9.35;7.35;;;;;;;;;;5072276;28;20081;-83
2021/11/10 12:45:16;;;;;;;11.27;7.85;;;;;;;;;;5098731;28;20038;-84
2021/11/10 12:47:49;;;;;;;7.97;6.78;;;;;;;;;;5099524;28;20028;-85
2021/11/10 12:53:37;;;;;;;11.88;8.07;;;;;;;;;;5099560;28;20055;-84
2021/11/10 12:56:03;;;;;;;11.60;7.47;;;;;;;;;;5098725;28;20111;-84
2021/11/10 12:58:30;;;;;;;16.20;8.13;;;;;;;;;;5099318;28;20028;-85
2021/11/10 13:00:57;;;;;;;11.13;8.52;;;;;;;;;;5099469;28;20146;-84
2021/11/10 13:03:26;;;;;;;11.65;9.00;;;;;;;;;;5099401;28;20021;-82
2021/11/10 13:06:05;;;;;;;16.50;11.50;;;;;;;;;;5097879;28;20020;-82
2021/11/10 13:08:41;;;;;;;21.38;13.70;;;;;;;;;;5098699;28;20023;-82
2021/11/10 13:11:13;;;;;;;17.80;11.82;;;;;;;;;;5098497;28;20022;-82
2021/11/10 13:13:40;;;;;;;16.70;11.98;;;;;;;;;;5098344;28;20035;-82
2021/11/10 13:16:06;;;;;;;20.48;12.80;;;;;;;;;;5097967;28;20318;-82
2021/11/10 13:18:33;;;;;;;17.80;13.75;;;;;;;;;;5098741;28;20016;-82
2021/11/10 13:21:01;;;;;;;17.00;12.05;;;;;;;;;;5098580;28;20054;-82
2021/11/10 13:23:31;;;;;;;20.25;11.98;;;;;;;;;;5098636;28;20020;-82
2021/11/10 13:25:58;;;;;;;15.27;10.82;;;;;;;;;;5098875;28;20332;-82
2021/11/10 13:28:24;;;;;;;19.27;11.90;;;;;;;;;;5097393;28;20402;-82
2021/11/10 13:30:55;;;;;;;14.10;9.50;;;;;;;;;;5098321;28;20028;-82
2021/11/10 13:33:22;;;;;;;14.80;10.60;;;;;;;;;;5080750;28;20471;-82
2021/11/10 13:36:08;;;;;;;15.10;9.20;;;;;;;;;;5097341;28;20345;-82
2021/11/10 13:38:53;;;;;;;13.50;9.88;;;;;;;;;;5097467;28;20111;-82
2021/11/10 13:41:31;;;;;;;13.82;9.75;;;;;;;;;;5098307;28;20103;-82
2021/11/10 13:43:59;;;;;;;17.60;11.18;;;;;;;;;;5097204;28;20052;-82
2021/11/10 13:46:26;;;;;;;17.92;10.15;;;;;;;;;;5098143;28;20024;-81
2021/11/10 13:49:03;;;;;;;14.18;9.27;;;;;;;;;;5098221;28;20038;-81
2021/11/10 13:51:29;;;;;;;14.55;10.48;;;;;;;;;;5097931;28;20460;-82
2021/11/10 13:54:16;;;;;;;11.75;9.07;;;;;;;;;;5097463;28;20028;-82
2021/11/10 13:56:50;;;;;;;48.67;24.92;;;;;;;;;;5097995;28;20042;-82
2021/11/10 13:59:18;;;;;;;16.65;10.52;;;;;;;;;;5096739;28;20136;-82
2021/11/10 14:01:56;;;;;;;14.35;10.93;;;;;;;;;;5097193;28;20060;-82
2021/11/10 14:04:23;;;;;;;18.17;11.93;;;;;;;;;;5098034;28;20027;-82
2021/11/10 14:07:18;;;;;;;16.88;11.68;;;;;;;;;;5097877;28;20077;-82
2021/11/10 14:09:44;;;;;;;13.73;10.02;;;;;;;;;;5055327;28;20033;-83
2021/11/10 14:12:24;;;;;;;12.90;10.57;;;;;;;;;;5039026;28;20029;-83
2021/11/10 14:14:55;;;;;;;20.08;14.25;;;;;;;;;;5038877;28;20124;-82
2021/11/10 14:17:22;;;;;;;22.48;14.88;;;;;;;;;;5055567;28;20032;-82
2021/11/10 14:19:52;;;;;;;28.17;16.10;;;;;;;;;;5055552;28;20064;-82
2021/11/10 14:22:22;;;;;;;43.80;25.55;;;;;;;;;;5038863;28;20022;-83
2021/11/10 14:24:48;;;;;;;28.38;18.00;;;;;;;;;;5055652;28;20510;-83
2021/11/10 14:27:14;;;;;;;17.67;12.48;;;;;;;;;;5055461;28;20033;-82
2021/11/10 14:29:40;;;;;;;14.02;10.57;;;;;;;;;;5055409;28;20119;-83
2021/11/10 14:32:07;;;;;;;14.48;10.20;;;;;;;;;;5055293;28;20472;-82
2021/11/10 14:34:33;;;;;;;14.27;10.50;;;;;;;;;;5038454;28;20033;-83
2021/11/10 14:37:04;;;;;;;18.02;12.18;;;;;;;;;;5055306;28;20029;-83
2021/11/10 14:39:31;;;;;;;34.53;22.60;;;;;;;;;;5055191;28;20036;-82
2021/11/10 14:42:11;;;;;;;22.83;13.73;;;;;;;;;;5038684;28;20035;-83
2021/11/10 14:44:40;;;;;;;19.60;13.82;;;;;;;;;;5038550;28;20068;-83
2021/11/10 14:47:06;;;;;;;17.30;11.93;;;;;;;;;;5094097;28;20119;-83
2021/11/10 14:49:35;;;;;;;15.77;11.48;;;;;;;;;;5096166;28;20036;-83
2021/11/10 14:52:22;;;;;;;18.10;11.00;;;;;;;;;;5097330;28;20024;-82
2021/11/10 14:54:54;;;;;;;16.52;11.68;;;;;;;;;;5097180;28;20032;-82
2021/11/10 14:57:31;;;;;;;15.27;11.70;;;;;;;;;;5097207;28;20100;-82
2021/11/10 15:00:02;;;;;;;19.85;12.73;;;;;;;;;;5097418;28;20042;-84
2021/11/10 15:02:30;;;;;;;24.48;16.02;;;;;;;;;;5097011;28;20441;-84
2021/11/10 15:04:56;;;;;;;28.05;16.52;;;;;;;;;;5097310;28;20050;-83
2021/11/10 15:07:27;;;;;;;23.58;15.00;;;;;;;;;;5100496;28;20031;-83
2021/11/10 15:09:53;;;;;;;16.98;12.82;;;;;;;;;;5100094;28;20119;-84
2021/11/10 15:12:19;;;;;;;27.08;19.13;;;;;;;;;;5087178;28;20067;-84
2021/11/10 15:14:46;;;;;;;26.02;18.75;;;;;;;;;;5089686;28;20025;-82
2021/11/10 15:17:21;;;;;;;29.67;17.48;;;;;;;;;;5101018;28;20048;-83
2021/11/10 15:20:04;;;;;;;27.55;18.02;;;;;;;;;;5101003;28;20055;-83
2021/11/10 15:23:09;;;;;;;59.85;32.47;;;;;;;;;;5100089;28;20133;-83
2021/11/10 15:25:36;;;;;;;27.88;18.58;;;;;;;;;;5078843;28;20029;-82
2021/11/10 15:28:09;;;;;;;22.13;14.70;;;;;;;;;;5076017;28;20037;-83
2021/11/10 15:30:37;;;;;;;20.15;15.25;;;;;;;;;;5066700;28;20036;-81
2021/11/10 15:33:05;;;;;;;23.92;14.90;;;;;;;;;;5078438;28;20040;-81
2021/11/10 15:35:36;;;;;;;22.88;14.10;;;;;;;;;;5078258;28;20458;-81
2021/11/10 15:38:39;;;;;;;21.73;14.55;;;;;;;;;;5078312;28;20037;-81
2021/11/10 15:41:05;;;;;;;;;;;;;;;;;;5077775;28;20029;-81
2021/11/10 15:43:31;;;;;;;35.83;21.45;;;;;;;;;;5076689;28;19914;-81
2021/11/10 15:46:00;;;;;;;40.65;23.98;;;;;;;;;;5075047;28;20499;-81